createdAt,value
2022-10-11T00:01:52.605Z,102354.84
2022-10-11T00:07:39.237Z,102362.88
2022-10-11T00:13:26.628Z,102362.75
2022-10-11T00:19:13.414Z,102356.09
2022-10-11T00:25:00.031Z,102357.69
2022-10-11T00:30:46.579Z,102346.00
2022-10-11T00:36:33.211Z,102355.94
2022-10-11T00:42:19.796Z,102359.00
2022-10-11T00:48:21.120Z,102364.25
2022-10-11T00:54:09.115Z,102372.53
2022-10-11T00:59:58.624Z,102366.50
2022-10-11T01:05:46.199Z,102372.97
2022-10-11T01:11:33.013Z,102375.31
2022-10-11T01:17:44.010Z,102380.19
2022-10-11T01:24:08.557Z,102376.81
2022-10-11T01:30:17.322Z,102383.50
2022-10-11T01:36:28.111Z,102374.19
2022-10-11T01:42:17.431Z,102392.09
2022-10-11T01:48:10.716Z,102376.88
2022-10-11T01:54:09.411Z,102385.09
2022-10-11T02:00:12.239Z,102381.34
2022-10-11T02:06:25.161Z,102379.66
2022-10-11T02:12:18.490Z,102382.06
2022-10-11T02:18:10.550Z,102370.03
2022-10-11T02:24:27.271Z,102365.03
2022-10-11T02:30:14.849Z,102354.34
2022-10-11T02:36:10.797Z,102356.16
2022-10-11T02:42:02.078Z,102358.91
2022-10-11T02:47:48.826Z,102354.69
2022-10-11T02:53:35.439Z,102358.41
2022-10-11T02:59:22.128Z,102359.84
2022-10-11T03:05:09.258Z,102355.41
2022-10-11T03:10:55.938Z,102368.38
2022-10-11T03:16:42.565Z,102359.91
2022-10-11T03:22:29.170Z,102358.69
2022-10-11T03:28:15.802Z,102361.53
2022-10-11T03:34:02.511Z,102355.94
2022-10-11T03:39:49.172Z,102364.44
2022-10-11T03:45:36.344Z,102354.41
2022-10-11T03:51:22.915Z,102364.75
2022-10-11T03:57:09.493Z,102370.28
2022-10-11T04:02:56.217Z,102373.13
2022-10-11T04:08:42.895Z,102372.72
2022-10-11T04:14:29.628Z,102370.75
2022-10-11T04:20:16.410Z,102365.25
2022-10-11T04:26:07.950Z,102375.03
2022-10-11T04:31:54.876Z,102382.72
2022-10-11T04:37:41.526Z,102388.16
2022-10-11T04:43:28.050Z,102362.66
2022-10-11T04:49:14.881Z,102388.59
2022-10-11T04:55:01.547Z,102391.22
2022-10-11T05:00:48.099Z,102385.34
2022-10-11T05:06:34.728Z,102396.50
2022-10-11T05:12:23.698Z,102404.56
2022-10-11T05:18:10.361Z,102408.81
2022-10-11T05:23:57.438Z,102407.59
2022-10-11T05:29:44.068Z,102409.03
2022-10-11T05:35:30.614Z,102414.09
2022-10-11T05:41:17.509Z,102416.75
2022-10-11T05:47:04.227Z,102423.19
2022-10-11T05:52:50.837Z,102433.91
2022-10-11T05:58:39.493Z,102431.88
2022-10-11T06:04:26.273Z,102437.56
2022-10-11T06:10:13.308Z,102430.28
2022-10-11T06:16:07.129Z,102430.31
2022-10-11T06:21:54.197Z,102439.59
2022-10-11T06:27:40.823Z,102446.28
2022-10-11T06:33:30.857Z,102463.88
2022-10-11T06:39:21.040Z,102463.25
2022-10-11T06:45:08.722Z,102478.25
2022-10-11T06:51:05.165Z,102484.94
2022-10-11T06:56:51.867Z,102493.88
2022-10-11T07:02:38.650Z,102482.25
2022-10-11T07:09:26.879Z,102485.66
2022-10-11T07:15:16.832Z,102491.06
2022-10-11T07:21:14.528Z,102500.28
2022-10-11T07:27:13.368Z,102480.69
2022-10-11T07:33:08.212Z,102486.50
2022-10-11T07:38:57.090Z,102497.25
2022-10-11T07:44:44.285Z,102486.59
2022-10-11T07:50:31.581Z,102480.75
2022-10-11T07:56:42.762Z,102484.78
2022-10-11T08:02:32.558Z,102481.88
2022-10-11T08:08:26.317Z,102475.88
2022-10-11T08:14:15.681Z,102485.72
2022-10-11T08:28:26.597Z,102476.09
2022-10-11T08:34:13.832Z,102489.47
2022-10-11T08:40:01.358Z,102494.06
2022-10-11T08:45:54.522Z,102488.69
2022-10-11T08:52:04.699Z,102485.63
2022-10-11T08:57:55.302Z,102497.34
2022-10-11T09:03:46.227Z,102500.78
2022-10-11T09:09:55.689Z,102499.59
2022-10-11T09:15:55.652Z,102486.09
2022-10-11T09:22:06.173Z,102482.16
2022-10-11T09:28:21.331Z,102487.38
2022-10-11T09:35:49.810Z,102469.53
2022-10-11T09:41:24.593Z,102477.72
2022-10-11T09:47:24.918Z,102465.25
2022-10-11T09:53:11.889Z,102464.19
2022-10-11T09:59:21.207Z,102464.72
2022-10-11T10:05:21.583Z,102455.41
2022-10-11T10:11:11.298Z,102472.16
2022-10-11T10:17:01.886Z,102467.94
2022-10-11T10:22:52.354Z,102464.91
2022-10-11T10:29:10.297Z,102459.34
2022-10-11T10:35:27.601Z,102466.78
2022-10-11T10:41:52.890Z,102463.78
2022-10-11T10:47:54.689Z,102469.41
2022-10-11T10:54:04.281Z,102465.81
2022-10-11T11:00:15.084Z,102458.88
2022-10-11T11:06:12.556Z,102442.09
2022-10-11T11:12:08.602Z,102443.81
2022-10-11T11:18:13.782Z,102438.22
2022-10-11T11:24:25.412Z,102424.91
2022-10-11T11:30:20.334Z,102420.69
2022-10-11T11:42:30.364Z,102413.00
2022-10-11T11:48:26.267Z,102382.72
2022-10-11T11:54:36.668Z,102390.19
2022-10-11T12:00:29.263Z,102382.13
2022-10-11T12:06:28.351Z,102385.47
2022-10-11T12:12:34.004Z,102365.09
2022-10-11T12:18:24.294Z,102365.47
2022-10-11T12:24:15.353Z,102359.91
2022-10-11T12:30:10.308Z,102365.00
2022-10-11T12:36:05.582Z,102353.66
2022-10-11T12:42:20.336Z,102359.91
2022-10-11T12:48:30.216Z,102353.25
2022-10-11T12:55:02.424Z,102341.19
2022-10-11T13:00:52.321Z,102338.50
2022-10-11T13:07:36.625Z,102335.84
2022-10-11T13:13:41.308Z,102308.84
2022-10-11T13:19:29.407Z,102300.28
2022-10-11T13:25:22.849Z,102302.63
2022-10-11T13:31:09.788Z,102294.22
2022-10-11T13:36:59.268Z,102284.59
2022-10-11T13:42:49.648Z,102277.88
2022-10-11T13:48:41.761Z,102271.50
2022-10-11T13:54:58.168Z,102277.44
2022-10-11T14:00:56.971Z,102279.53
2022-10-11T14:06:58.157Z,102286.91
2022-10-11T14:12:57.077Z,102272.94
2022-10-11T14:19:02.374Z,102261.22
2022-10-11T14:24:53.558Z,102252.94
2022-10-11T14:30:41.515Z,102264.22
2022-10-11T14:36:28.475Z,102249.38
2022-10-11T14:42:15.716Z,102234.84
2022-10-11T14:48:02.600Z,102230.59
2022-10-11T14:53:50.395Z,102228.38
2022-10-11T14:59:38.610Z,102215.69
2022-10-11T15:05:33.403Z,102210.22
2022-10-11T15:11:22.217Z,102209.44
2022-10-11T15:17:11.992Z,102203.03
2022-10-11T15:23:00.134Z,102180.38
2022-10-11T15:28:52.670Z,102183.13
2022-10-11T15:34:39.626Z,102171.44
2022-10-11T15:40:31.861Z,102167.13
2022-10-11T15:46:22.937Z,102163.91
2022-10-11T15:52:12.546Z,102171.06
2022-10-11T15:58:01.667Z,102162.06
2022-10-11T16:03:52.027Z,102159.63
2022-10-11T16:09:47.069Z,102151.94
2022-10-11T16:15:44.186Z,102150.63
2022-10-11T16:21:37.044Z,102165.28
2022-10-11T16:27:25.766Z,102166.31
2022-10-11T16:33:15.630Z,102175.66
2022-10-11T16:39:18.696Z,102165.81
2022-10-11T16:45:07.797Z,102163.66
2022-10-11T16:50:54.733Z,102171.13
2022-10-11T16:56:41.677Z,102168.22
2022-10-11T17:02:32.589Z,102171.19
2022-10-11T17:08:21.279Z,102182.94
2022-10-11T17:14:08.298Z,102187.50
2022-10-11T17:19:55.956Z,102193.03
2022-10-11T17:25:44.680Z,102196.22
2022-10-11T17:31:36.680Z,102192.47
2022-10-11T17:37:24.465Z,102192.97
2022-10-11T17:43:11.275Z,102190.97
2022-10-11T17:49:01.887Z,102198.06
2022-10-11T17:54:48.622Z,102199.78
2022-10-11T18:00:39.331Z,102194.09
2022-10-11T18:06:29.057Z,102195.00
2022-10-11T18:12:15.969Z,102200.97
2022-10-11T18:18:04.873Z,102195.06
2022-10-11T18:23:52.367Z,102195.59
2022-10-11T18:29:39.543Z,102208.41
2022-10-11T18:35:28.358Z,102212.63
2022-10-11T18:41:17.754Z,102206.47
2022-10-11T18:47:14.535Z,102207.91
2022-10-11T18:53:06.998Z,102196.34
2022-10-11T18:59:12.755Z,102190.38
2022-10-11T19:06:21.378Z,102192.34
2022-10-11T19:12:04.814Z,102191.66
2022-10-11T19:17:51.974Z,102195.56
2022-10-11T19:23:43.671Z,102199.66
2022-10-11T19:29:31.064Z,102198.25
2022-10-11T19:35:20.023Z,102189.81
2022-10-11T19:41:07.118Z,102194.06
2022-10-11T19:46:53.735Z,102188.94
2022-10-11T19:52:44.957Z,102181.19
2022-10-11T19:58:32.050Z,102173.78
2022-10-11T20:10:29.478Z,102188.00
2022-10-11T20:23:54.896Z,102188.31
2022-10-11T20:30:05.720Z,102179.84
2022-10-11T20:36:06.545Z,102188.47
2022-10-11T21:14:13.592Z,102184.72
2022-10-11T21:18:27.299Z,102185.44
2022-10-11T21:56:01.715Z,102182.91
2022-10-11T22:03:23.054Z,102177.59
2022-10-11T22:17:41.902Z,102172.88
2022-10-11T22:24:38.055Z,102182.34
2022-10-11T22:37:52.468Z,102168.38
2022-10-11T22:43:39.306Z,102166.69
2022-10-11T22:49:26.171Z,102157.00
2022-10-11T22:55:17.550Z,102162.28
2022-10-11T23:01:11.671Z,102151.00
2022-10-11T23:07:04.740Z,102149.38
2022-10-11T23:12:51.670Z,102147.41
2022-10-11T23:18:38.993Z,102141.81
2022-10-11T23:24:25.659Z,102149.25
2022-10-11T23:30:13.012Z,102132.16
2022-10-11T23:35:59.709Z,102136.03
2022-10-11T23:41:46.313Z,102124.88
2022-10-11T23:47:32.927Z,102120.00
2022-10-11T23:53:19.609Z,102124.06
2022-10-11T23:59:06.414Z,102124.59
